Time;durP1;ratioP1;P1;durP2;ratioP2;P2;SDS_P1;SDS_P2;PMS_P1;PMS_P2;Temp;Humidity;BMP_temperature;BMP_pressure;BME280_temperature;BME280_humidity;BME280_pressure;Samples;Min_cycle;Max_cycle;Signal;HPM_P1;HPM_P2
2023/09/29 00:00:53;;;;;;;24.10;8.50;;;;;;;15.80;100.00;95046.38;5032954;28;20037;-81
2023/09/29 00:03:19;;;;;;;17.95;9.02;;;;;;;15.51;100.00;95036.69;5034195;28;20091;-81
2023/09/29 00:05:44;;;;;;;14.98;8.85;;;;;;;15.46;100.00;95042.81;5032782;28;20033;-82
2023/09/29 00:08:16;;;;;;;21.58;9.45;;;;;;;15.18;100.00;95037.28;5032685;28;20447;-81
2023/09/29 00:10:41;;;;;;;19.00;8.25;;;;;;;14.97;100.00;95034.06;5032879;28;20031;-81
2023/09/29 00:13:07;;;;;;;15.65;8.35;;;;;;;14.98;100.00;95033.00;5032711;28;20056;-81
2023/09/29 00:15:33;;;;;;;14.18;8.45;;;;;;;14.88;100.00;95036.53;5032761;28;20033;-82
2023/09/29 00:17:59;;;;;;;15.98;8.15;;;;;;;14.87;100.00;95037.59;5032565;28;20445;-81
2023/09/29 00:20:25;;;;;;;18.50;8.67;;;;;;;14.52;100.00;95037.59;4989104;28;1293011;-81
2023/09/29 00:22:54;;;;;;;20.88;8.65;;;;;;;14.31;100.00;95033.50;5033682;28;20064;-81
2023/09/29 00:25:20;;;;;;;18.98;9.48;;;;;;;14.34;100.00;95036.38;5033051;28;20026;-80
2023/09/29 00:27:45;;;;;;;16.83;8.60;;;;;;;14.33;100.00;95029.53;5034427;28;20029;-81
2023/09/29 00:30:14;;;;;;;18.27;9.13;;;;;;;14.33;100.00;95023.47;5033266;28;20032;-81
2023/09/29 00:32:45;;;;;;;24.63;8.98;;;;;;;14.40;100.00;95023.97;5033179;28;20422;-81
2023/09/29 00:35:11;;;;;;;18.52;8.65;;;;;;;14.68;100.00;95024.28;5033354;28;20040;-81
2023/09/29 00:37:36;;;;;;;14.70;8.63;;;;;;;14.62;100.00;95034.06;5033026;28;20032;-81
2023/09/29 00:40:02;;;;;;;20.02;8.98;;;;;;;14.64;100.00;95031.16;5034280;28;20037;-81
2023/09/29 00:42:28;;;;;;;16.67;8.55;;;;;;;14.53;100.00;95027.81;5033119;28;20068;-80
2023/09/29 00:44:53;;;;;;;19.30;8.55;;;;;;;14.27;100.00;95030.63;5034280;28;20128;-80
2023/09/29 00:47:19;;;;;;;22.55;9.82;;;;;;;14.44;100.00;95029.47;5032843;28;20029;-81
2023/09/29 00:49:46;;;;;;;22.48;8.95;;;;;;;14.46;100.00;95028.13;5033203;28;20029;-81
2023/09/29 00:52:13;;;;;;;14.90;8.75;;;;;;;14.33;100.00;95029.53;5033340;28;20087;-80
2023/09/29 00:54:38;;;;;;;17.42;9.23;;;;;;;14.47;100.00;95026.28;5033010;28;20116;-81
2023/09/29 00:57:05;;;;;;;18.10;9.18;;;;;;;14.49;100.00;95035.50;5033994;28;20112;-81
2023/09/29 00:59:32;;;;;;;20.20;8.52;;;;;;;14.60;100.00;95030.13;5033117;28;20104;-81
2023/09/29 01:01:58;;;;;;;19.88;9.07;;;;;;;14.66;100.00;95029.03;5032852;28;20354;-81
2023/09/29 01:04:23;;;;;;;27.25;9.77;;;;;;;14.46;100.00;95029.97;5032962;28;20025;-81
2023/09/29 01:06:50;;;;;;;16.25;8.57;;;;;;;14.47;100.00;95026.28;5032526;28;20083;-80
2023/09/29 01:09:16;;;;;;;15.40;8.85;;;;;;;14.36;100.00;95025.56;5032688;28;20025;-80
2023/09/29 01:11:45;;;;;;;21.52;8.65;;;;;;;14.47;100.00;95026.28;5032681;28;20438;-80
2023/09/29 01:14:14;;;;;;;18.30;8.85;;;;;;;14.46;100.00;95020.22;5016760;28;20694;-81
2023/09/29 01:16:40;;;;;;;22.65;8.80;;;;;;;14.35;100.00;95021.38;5032691;28;20060;-81
2023/09/29 01:19:13;;;;;;;27.23;9.23;;;;;;;14.24;100.00;95024.06;5032400;28;20031;-81
2023/09/29 01:21:44;;;;;;;14.75;8.52;;;;;;;14.27;100.00;95026.16;5032685;28;20430;-81
2023/09/29 01:24:10;;;;;;;16.58;9.32;;;;;;;14.41;100.00;95028.94;5032605;28;20362;-81
2023/09/29 01:26:36;;;;;;;20.15;9.35;;;;;;;14.35;100.00;95027.41;5032591;28;20033;-81
2023/09/29 01:29:02;;;;;;;14.75;8.63;;;;;;;14.27;100.00;95026.16;5033558;28;20420;-80
2023/09/29 01:31:28;;;;;;;17.40;9.02;;;;;;;14.04;100.00;95032.09;5032419;28;20083;-80
2023/09/29 01:33:54;;;;;;;16.98;8.75;;;;;;;13.97;100.00;95022.66;5033703;28;20033;-80
2023/09/29 01:36:20;;;;;;;17.23;9.32;;;;;;;13.80;100.00;95023.00;5032524;28;20051;-80
2023/09/29 01:38:45;;;;;;;19.30;9.45;;;;;;;13.75;100.00;95022.22;5035768;28;20039;-80
2023/09/29 01:41:13;;;;;;;23.48;9.73;;;;;;;13.90;100.00;95024.00;5037831;28;20135;-80
2023/09/29 01:43:39;;;;;;;14.65;9.07;;;;;;;13.76;100.00;95013.25;5038263;28;20033;-80
2023/09/29 01:46:04;;;;;;;21.60;10.00;;;;;;;13.64;100.00;95019.66;5037276;28;20414;-81
2023/09/29 01:48:30;;;;;;;24.00;9.63;;;;;;;13.71;100.00;95014.88;5036569;28;20183;-80
2023/09/29 01:50:56;;;;;;;16.45;9.27;;;;;;;13.80;100.00;95024.84;5037512;28;20032;-80
2023/09/29 01:53:21;;;;;;;21.08;9.80;;;;;;;13.65;100.00;95018.59;5036282;28;20056;-81
2023/09/29 01:55:46;;;;;;;24.20;10.00;;;;;;;13.81;100.00;95023.78;5036353;28;20343;-81
2023/09/29 01:58:12;;;;;;;17.20;8.80;;;;;;;13.84;100.00;95017.97;5035970;28;20025;-81
2023/09/29 02:00:38;;;;;;;23.02;9.65;;;;;;;13.95;100.00;95019.50;5036090;28;20037;-81
2023/09/29 02:03:07;;;;;;;21.98;9.38;;;;;;;13.98;100.00;95023.41;5036172;28;20040;-80
2023/09/29 02:05:32;;;;;;;15.13;9.57;;;;;;;14.09;100.00;95021.53;5036254;28;20080;-81
2023/09/29 02:07:58;;;;;;;22.30;9.70;;;;;;;13.97;100.00;95016.56;5035684;28;20072;-81
2023/09/29 02:10:24;;;;;;;24.83;10.15;;;;;;;13.74;100.00;95020.66;5036013;28;20036;-83
2023/09/29 02:12:59;;;;;;;18.40;10.23;;;;;;;13.64;100.00;95017.03;5036014;28;20037;-82
2023/09/29 02:15:26;;;;;;;20.13;10.10;;;;;;;13.57;100.00;95025.22;5037011;28;20037;-81
2023/09/29 02:17:52;;;;;;;23.02;10.25;;;;;;;13.63;100.00;95018.09;5036124;28;20037;-81
2023/09/29 02:20:20;;;;;;;23.27;10.07;;;;;;;13.49;100.00;95020.50;5019465;28;20037;-81
2023/09/29 02:22:46;;;;;;;22.00;10.50;;;;;;;13.49;100.00;95020.50;5036210;28;20087;-81
2023/09/29 02:25:16;;;;;;;23.73;10.40;;;;;;;13.61;100.00;95022.81;5039262;28;20428;-81
2023/09/29 02:27:42;;;;;;;18.65;9.73;;;;;;;13.61;100.00;95020.16;5055631;28;20037;-81
2023/09/29 02:30:09;;;;;;;21.90;9.75;;;;;;;13.61;100.00;95020.16;5055398;28;20021;-81
2023/09/29 02:32:41;;;;;;;20.08;10.05;;;;;;;13.64;100.00;95013.59;5055538;28;20075;-81
2023/09/29 02:35:08;;;;;;;19.23;9.80;;;;;;;13.53;100.00;95015.50;5039389;28;20064;-81
2023/09/29 02:37:33;;;;;;;16.08;9.10;;;;;;;13.51;100.00;95018.38;5055294;28;20032;-81
2023/09/29 02:39:58;;;;;;;19.30;9.90;;;;;;;13.61;100.00;95016.78;5038958;28;20020;-81
2023/09/29 02:42:24;;;;;;;23.65;9.43;;;;;;;13.63;100.00;95018.09;5055237;28;20116;-81
2023/09/29 02:44:50;;;;;;;25.27;10.07;;;;;;;13.59;100.00;95011.75;5055247;28;20574;-81
2023/09/29 02:47:15;;;;;;;15.55;9.05;;;;;;;13.54;100.00;95015.19;5055064;28;20082;-81
2023/09/29 02:49:41;;;;;;;19.38;9.55;;;;;;;13.63;100.00;95009.38;5054547;28;20032;-81
2023/09/29 02:52:06;;;;;;;18.85;10.38;;;;;;;13.60;100.00;95005.44;5056206;28;20472;-81
2023/09/29 02:54:32;;;;;;;20.40;10.20;;;;;;;13.73;100.00;95014.63;5056253;28;20078;-81
2023/09/29 02:56:58;;;;;;;24.63;10.98;;;;;;;13.60;100.00;95008.06;5056096;28;20096;-81
2023/09/29 02:59:24;;;;;;;20.88;10.07;;;;;;;13.53;100.00;95011.00;5055059;28;20075;-81
2023/09/29 03:01:50;;;;;;;22.77;10.13;;;;;;;13.64;100.00;95008.31;5056693;28;20043;-81
2023/09/29 03:04:16;;;;;;;19.55;10.32;;;;;;;13.57;100.00;95011.25;5055031;28;20024;-81
2023/09/29 03:06:41;;;;;;;20.40;10.63;;;;;;;13.58;100.00;95007.56;5054854;28;20032;-81
2023/09/29 03:09:10;;;;;;;19.08;10.45;;;;;;;13.66;100.00;95012.28;5034702;28;20032;-81
2023/09/29 03:11:39;;;;;;;30.30;11.27;;;;;;;13.56;100.00;95002.56;5034808;28;20033;-81
2023/09/29 03:14:06;;;;;;;20.10;10.63;;;;;;;13.66;100.00;95014.91;5036051;28;20116;-81
2023/09/29 03:16:35;;;;;;;26.52;10.63;;;;;;;13.73;100.00;95011.97;5034964;28;20025;-81
2023/09/29 03:19:02;;;;;;;24.48;11.00;;;;;;;13.67;100.00;95002.50;5035765;28;20462;-81
2023/09/29 03:21:27;;;;;;;20.90;9.32;;;;;;;13.75;100.00;95012.50;5049826;28;20132;-81
2023/09/29 03:23:53;;;;;;;16.67;10.45;;;;;;;13.73;100.00;95008.53;5054663;28;20481;-81
2023/09/29 03:26:22;;;;;;;22.05;10.68;;;;;;;13.81;100.00;95003.50;5054215;28;20029;-81
2023/09/29 03:28:47;;;;;;;23.85;10.68;;;;;;;13.66;100.00;94999.09;5054347;28;20027;-81
2023/09/29 03:31:13;;;;;;;30.08;11.52;;;;;;;13.55;100.00;95003.59;5054445;28;20020;-81
2023/09/29 03:33:38;;;;;;;20.83;10.23;;;;;;;13.40;100.00;95001.00;5054473;28;20025;-81
2023/09/29 03:36:04;;;;;;;19.05;10.10;;;;;;;13.48;100.00;94991.78;5037557;28;20029;-81
2023/09/29 03:38:30;;;;;;;22.83;10.95;;;;;;;13.50;100.00;95002.88;5054121;28;20031;-81
2023/09/29 03:40:57;;;;;;;19.85;10.63;;;;;;;13.68;100.00;94999.63;5054185;28;20025;-81
2023/09/29 03:43:23;;;;;;;20.38;10.23;;;;;;;13.58;100.00;94997.03;5054427;28;20056;-81
2023/09/29 03:45:50;;;;;;;21.85;10.93;;;;;;;13.55;100.00;94993.06;5054328;28;20053;-81
2023/09/29 03:48:16;;;;;;;17.45;9.75;;;;;;;13.53;100.00;94999.69;5054004;28;20035;-81
2023/09/29 03:50:42;;;;;;;18.08;9.93;;;;;;;13.59;100.00;95000.47;5054092;28;20044;-81
2023/09/29 03:53:08;;;;;;;18.40;9.85;;;;;;;13.60;100.00;95002.81;5053977;28;20327;-81
2023/09/29 03:55:33;;;;;;;19.77;10.80;;;;;;;13.61;100.00;95001.75;5053955;28;20029;-81
2023/09/29 03:58:00;;;;;;;22.63;10.93;;;;;;;13.53;100.00;94997.81;5053821;28;20098;-81
2023/09/29 04:00:26;;;;;;;22.48;11.10;;;;;;;13.56;100.00;95007.03;5053313;28;20460;-81
2023/09/29 04:02:52;;;;;;;28.00;11.10;;;;;;;13.54;100.00;95002.03;5053738;28;20038;-81
2023/09/29 04:05:18;;;;;;;20.83;10.70;;;;;;;13.63;100.00;95002.28;5053670;28;20033;-81
2023/09/29 04:07:44;;;;;;;25.00;10.60;;;;;;;13.41;100.00;95002.59;5053578;28;20056;-81
2023/09/29 04:10:10;;;;;;;24.23;10.73;;;;;;;13.61;100.00;95000.97;5053430;28;20413;-81
2023/09/29 04:12:41;;;;;;;22.88;10.45;;;;;;;13.48;100.00;95003.13;5054893;28;20155;-81
2023/09/29 04:15:07;;;;;;;20.88;9.98;;;;;;;13.40;100.00;95006.28;5037175;28;20025;-81
2023/09/29 04:17:33;;;;;;;19.35;9.70;;;;;;;13.35;100.00;95007.09;5053316;28;20132;-81
2023/09/29 04:19:59;;;;;;;20.80;10.48;;;;;;;13.32;100.00;94998.94;5053341;28;20473;-81
2023/09/29 04:22:24;;;;;;;20.45;10.38;;;;;;;13.33;100.00;94998.66;5035467;28;20064;-81
2023/09/29 04:24:51;;;;;;;22.10;11.30;;;;;;;13.49;100.00;95001.28;5033303;28;20052;-81
2023/09/29 04:27:16;;;;;;;17.33;10.50;;;;;;;13.61;100.00;95001.75;5022046;28;20034;-81
2023/09/29 04:29:41;;;;;;;19.85;10.45;;;;;;;13.82;100.00;95007.69;5053016;28;20044;-81
2023/09/29 04:32:07;;;;;;;20.85;10.73;;;;;;;13.77;100.00;95012.19;5053267;28;20345;-81
2023/09/29 04:34:33;;;;;;;17.90;10.23;;;;;;;13.97;100.00;95006.03;5054434;28;20032;-81
2023/09/29 04:36:58;;;;;;;17.95;9.70;;;;;;;14.04;100.00;95003.09;5053023;28;20029;-81
2023/09/29 04:39:24;;;;;;;27.38;10.55;;;;;;;14.10;100.00;95005.44;5053866;28;20392;-82
2023/09/29 04:41:50;;;;;;;18.40;10.00;;;;;;;14.12;100.00;95002.53;5053091;28;20520;-82
2023/09/29 04:44:15;;;;;;;18.75;9.65;;;;;;;14.18;100.00;95005.94;5054265;28;20025;-81
2023/09/29 04:46:42;;;;;;;17.48;10.32;;;;;;;14.19;100.00;95016.19;5053473;28;20020;-81
2023/09/29 04:49:07;;;;;;;22.80;10.93;;;;;;;14.30;100.00;95019.56;5052596;28;20029;-81
2023/09/29 04:51:33;;;;;;;19.30;10.60;;;;;;;14.29;100.00;95015.34;5052776;28;20123;-81
2023/09/29 04:53:59;;;;;;;19.33;9.82;;;;;;;14.28;100.00;95022.44;5050312;28;20078;-83
2023/09/29 04:56:24;;;;;;;23.38;10.52;;;;;;;14.25;100.00;95019.56;5052045;28;20033;-82
2023/09/29 04:58:50;;;;;;;16.50;9.82;;;;;;;14.12;100.00;95020.97;5054014;28;20457;-82
2023/09/29 05:01:17;;;;;;;20.48;9.38;;;;;;;13.90;100.00;95030.03;5053254;28;20082;-82
2023/09/29 05:03:42;;;;;;;17.33;10.50;;;;;;;14.00;100.00;95023.97;5053600;28;20045;-82
2023/09/29 05:06:10;;;;;;;21.63;10.30;;;;;;;14.05;100.00;95028.38;5037129;28;20029;-81
2023/09/29 05:08:36;;;;;;;24.13;11.27;;;;;;;14.10;100.00;95026.50;5053733;28;20033;-82
2023/09/29 05:11:02;;;;;;;21.50;10.23;;;;;;;14.25;100.00;95032.75;5053931;28;20036;-82
2023/09/29 05:13:32;;;;;;;17.50;9.98;;;;;;;14.30;100.00;95031.94;5053789;28;20029;-82
2023/09/29 05:15:59;;;;;;;14.80;10.05;;;;;;;14.39;100.00;95035.56;5053717;28;20025;-81
2023/09/29 05:18:25;;;;;;;15.73;9.43;;;;;;;14.41;100.00;95036.84;5053542;28;20029;-81
2023/09/29 05:20:50;;;;;;;22.98;10.27;;;;;;;14.39;100.00;95038.97;5054064;28;20028;-81
2023/09/29 05:23:16;;;;;;;25.48;10.05;;;;;;;14.49;100.00;95045.25;5053723;28;20032;-81
2023/09/29 05:25:47;;;;;;;21.02;10.70;;;;;;;14.50;100.00;95050.25;5053849;28;20279;-81
2023/09/29 05:28:13;;;;;;;21.92;10.73;;;;;;;14.50;100.00;95047.63;5053545;28;20035;-81
2023/09/29 05:30:42;;;;;;;22.35;10.45;;;;;;;14.50;100.00;95050.25;5052587;28;20029;-81
2023/09/29 05:33:08;;;;;;;17.58;8.93;;;;;;;14.53;100.00;95047.06;5052403;28;20052;-81
2023/09/29 05:35:33;;;;;;;17.67;10.18;;;;;;;14.60;100.00;95054.66;5036888;28;20040;-81
2023/09/29 05:37:58;;;;;;;24.33;9.40;;;;;;;14.70;100.00;95051.16;5051615;28;20397;-81
2023/09/29 05:40:24;;;;;;;21.65;10.15;;;;;;;14.72;100.00;95059.59;5053519;28;20040;-83
2023/09/29 05:42:49;;;;;;;22.42;9.95;;;;;;;14.77;100.00;95058.78;5036525;28;20060;-81
2023/09/29 05:45:15;;;;;;;19.35;9.85;;;;;;;14.76;100.00;95060.63;5054562;28;20036;-82
2023/09/29 05:47:40;;;;;;;14.40;9.10;;;;;;;14.79;100.00;95064.56;5053473;28;20033;-81
2023/09/29 05:50:06;;;;;;;17.63;9.88;;;;;;;14.81;100.00;95071.13;5036999;28;20033;-81
2023/09/29 05:52:32;;;;;;;21.10;9.90;;;;;;;14.87;100.00;95068.44;5050769;28;20043;-81
2023/09/29 05:54:57;;;;;;;17.58;9.00;;;;;;;14.96;100.00;95064.16;5050810;28;20354;-81
2023/09/29 05:57:22;;;;;;;20.50;10.23;;;;;;;15.02;100.00;95057.00;5036964;28;20036;-83
2023/09/29 05:59:48;;;;;;;20.10;10.00;;;;;;;15.06;100.00;95066.72;5053440;28;20164;-82
2023/09/29 06:02:13;;;;;;;19.77;10.52;;;;;;;15.01;100.00;95061.47;5053333;28;20060;-81
2023/09/29 06:04:39;;;;;;;20.65;10.35;;;;;;;14.97;100.00;95065.72;5053477;28;20422;-82
2023/09/29 06:07:04;;;;;;;18.98;10.27;;;;;;;15.05;100.00;95059.84;5035689;28;20025;-81
2023/09/29 06:09:30;;;;;;;25.75;10.45;;;;;;;15.15;100.00;95063.47;5033345;28;20127;-81
2023/09/29 06:11:55;;;;;;;20.75;10.07;;;;;;;15.26;100.00;95070.22;5053888;28;20052;-81
2023/09/29 06:14:21;;;;;;;20.15;9.63;;;;;;;15.38;100.00;95061.91;5054387;28;20033;-82
2023/09/29 06:16:46;;;;;;;19.45;9.65;;;;;;;15.52;100.00;95067.31;5053217;28;20067;-81
2023/09/29 06:19:12;;;;;;;19.95;9.20;;;;;;;15.65;100.00;95077.19;5054133;28;20033;-81
2023/09/29 06:21:39;;;;;;;15.50;8.07;;;;;;;15.66;100.00;95073.50;5051336;28;20130;-81
2023/09/29 06:24:04;;;;;;;19.48;9.65;;;;;;;15.79;100.00;95066.72;5034435;28;20025;-82
2023/09/29 06:26:30;;;;;;;18.17;8.77;;;;;;;15.88;100.00;95079.31;5036700;28;20029;-81
2023/09/29 06:28:56;;;;;;;20.40;8.40;;;;;;;16.03;100.00;95075.72;5036450;28;20069;-81
2023/09/29 06:31:21;;;;;;;14.65;8.75;;;;;;;16.12;100.00;95081.94;5036872;28;20033;-82
2023/09/29 06:33:47;;;;;;;19.80;8.32;;;;;;;16.21;100.00;95080.25;5036894;28;20393;-82
2023/09/29 06:36:12;;;;;;;17.58;8.73;;;;;;;16.34;100.00;95077.94;5036559;28;20033;-81
2023/09/29 06:38:37;;;;;;;16.95;8.73;;;;;;;16.49;100.00;95085.66;5036586;28;20497;-83
2023/09/29 06:41:03;;;;;;;16.60;7.65;;;;;;;16.62;100.00;95080.72;5036470;28;20025;-83
2023/09/29 06:43:28;;;;;;;15.52;7.90;;;;;;;16.74;100.00;95088.22;5036396;28;20026;-81
2023/09/29 06:45:54;;;;;;;17.58;8.18;;;;;;;16.71;100.00;95094.06;5053021;28;20021;-81
2023/09/29 06:48:19;;;;;;;17.90;9.00;;;;;;;16.72;100.00;95093.03;5035959;28;20104;-81
2023/09/29 06:50:45;;;;;;;13.63;8.45;;;;;;;16.73;100.00;95095.38;5019939;28;20188;-81
2023/09/29 06:53:10;;;;;;;14.45;8.23;;;;;;;16.39;100.00;95094.53;5036170;28;20035;-81
2023/09/29 06:55:36;;;;;;;16.48;7.35;;;;;;;16.66;100.00;95094.97;5036072;28;20033;-81
2023/09/29 06:58:04;;;;;;;24.27;8.77;;;;;;;16.51;100.00;95099.41;5036141;28;20025;-81
2023/09/29 07:00:30;;;;;;;14.32;7.95;;;;;;;16.70;100.00;95103.88;5036155;28;20093;-81
2023/09/29 07:02:55;;;;;;;15.70;7.72;;;;;;;16.90;100.00;95089.56;5019817;28;20044;-82
2023/09/29 07:05:20;;;;;;;15.80;7.97;;;;;;;17.05;100.00;95096.47;5019555;28;20029;-82
2023/09/29 07:07:46;;;;;;;18.52;7.25;;;;;;;17.13;100.00;95097.66;5035881;28;20033;-81
2023/09/29 07:10:11;;;;;;;16.13;8.07;;;;;;;17.29;100.00;95094.78;5036104;28;20041;-82
2023/09/29 07:12:37;;;;;;;17.75;6.78;;;;;;;17.40;100.00;95096.16;5035981;28;20087;-82
2023/09/29 07:15:03;;;;;;;21.00;7.38;;;;;;;17.53;100.00;95098.03;5037286;28;20052;-82
2023/09/29 07:17:28;;;;;;;17.30;7.63;;;;;;;17.69;100.00;95091.66;5035923;28;20029;-80
2023/09/29 07:19:54;;;;;;;15.80;6.53;;;;;;;17.77;100.00;95091.75;5035750;28;20034;-81
2023/09/29 07:22:19;;;;;;;18.63;7.38;;;;;;;17.70;100.00;95095.88;5035567;28;20423;-81
2023/09/29 07:24:46;;;;;;;13.55;7.07;;;;;;;17.90;100.00;95095.47;5035520;28;20033;-81
2023/09/29 07:27:12;;;;;;;15.23;6.90;;;;;;;18.00;100.00;95096.38;5036853;28;20423;-81
2023/09/29 07:29:37;;;;;;;12.10;6.95;;;;;;;17.94;100.00;95095.69;5035635;28;20044;-81
2023/09/29 07:32:03;;;;;;;13.68;7.40;;;;;;;18.14;100.00;95099.81;5035296;28;20033;-81
2023/09/29 07:34:30;;;;;;;13.85;6.88;;;;;;;18.21;100.00;95108.13;5035382;28;20037;-81
2023/09/29 07:36:56;;;;;;;10.50;7.47;;;;;;;18.09;100.00;95102.56;5017870;28;20033;-81
2023/09/29 07:39:21;;;;;;;14.50;7.30;;;;;;;18.20;100.00;95109.22;5035197;28;20060;-81
2023/09/29 07:41:48;;;;;;;14.65;6.63;;;;;;;18.26;100.00;95109.13;5036617;28;20033;-81
2023/09/29 07:44:14;;;;;;;22.30;7.63;;;;;;;17.93;100.00;95107.38;5036400;28;20362;-81
2023/09/29 07:46:39;;;;;;;16.60;7.78;;;;;;;18.07;100.00;95112.66;5035307;28;20036;-81
2023/09/29 07:49:05;;;;;;;11.05;7.25;;;;;;;18.13;100.00;95111.50;5051969;28;20067;-81
2023/09/29 07:51:32;;;;;;;12.63;7.45;;;;;;;18.09;100.00;95115.84;5035228;28;20068;-81
2023/09/29 07:53:57;;;;;;;12.38;7.53;;;;;;;18.14;100.00;95114.91;5035477;28;20033;-81
2023/09/29 07:56:23;;;;;;;16.85;7.88;;;;;;;18.14;100.00;95110.41;5035000;28;20090;-81
2023/09/29 07:58:49;;;;;;;12.63;7.80;;;;;;;18.39;100.00;95110.16;5034784;28;20025;-81
2023/09/29 08:01:14;;;;;;;16.77;10.02;;;;;;;18.32;100.00;95114.03;5034873;28;20049;-81
2023/09/29 08:03:42;;;;;;;20.80;10.13;;;;;;;18.20;100.00;95113.75;5035164;28;20047;-81
2023/09/29 08:06:08;;;;;;;19.67;9.75;;;;;;;18.23;100.00;95118.44;5034846;28;20030;-81
2023/09/29 08:08:34;;;;;;;18.40;9.20;;;;;;;18.33;100.00;95118.25;5034434;28;20140;-81
2023/09/29 08:11:00;;;;;;;18.75;8.50;;;;;;;18.35;100.00;95123.22;5034699;28;20123;-81
2023/09/29 08:13:25;;;;;;;17.73;7.22;;;;;;;18.43;100.00;95121.75;5034903;28;20040;-82
2023/09/29 08:15:51;;;;;;;21.33;7.88;;;;;;;18.35;100.00;95120.59;5034486;28;20079;-81
2023/09/29 08:18:17;;;;;;;15.55;8.02;;;;;;;18.51;100.00;95123.69;5034246;28;20026;-81
2023/09/29 08:20:43;;;;;;;12.57;7.38;;;;;;;18.53;100.00;95123.41;5018162;28;20035;-81
2023/09/29 08:23:08;;;;;;;18.00;8.18;;;;;;;18.66;100.00;95127.91;5034449;28;20037;-81
2023/09/29 08:25:34;;;;;;;15.00;7.60;;;;;;;18.88;100.00;95126.34;5034272;28;20040;-81
2023/09/29 08:28:02;;;;;;;13.77;6.95;;;;;;;18.99;100.00;95133.00;5033893;28;20034;-81
2023/09/29 08:30:28;;;;;;;11.75;6.88;;;;;;;19.19;100.00;95125.63;5034303;28;20025;-81
2023/09/29 08:32:53;;;;;;;16.60;6.88;;;;;;;19.32;100.00;95121.34;5018063;28;20445;-81
2023/09/29 08:35:19;;;;;;;14.98;6.60;;;;;;;19.33;100.00;95139.59;5017982;28;20022;-81
2023/09/29 08:37:45;;;;;;;8.95;5.93;;;;;;;19.49;100.00;95134.69;5034040;28;20376;-81
2023/09/29 08:40:12;;;;;;;15.30;5.85;;;;;;;19.46;97.37;95130.00;5034360;28;20108;-82
2023/09/29 08:42:39;;;;;;;19.95;5.10;;;;;;;19.68;88.46;95133.69;5034126;28;20072;-81
2023/09/29 08:45:14;;;;;;;8.50;4.55;;;;;;;19.69;87.05;95137.91;5017926;28;20445;-81
2023/09/29 08:47:40;;;;;;;15.82;4.97;;;;;;;19.99;85.65;95137.44;5033731;28;20338;-81
2023/09/29 08:50:06;;;;;;;12.77;5.40;;;;;;;19.92;87.37;95141.31;5035249;28;20358;-81
2023/09/29 08:52:32;;;;;;;12.05;5.22;;;;;;;19.94;93.66;95143.66;5033812;28;20037;-81
2023/09/29 08:54:59;;;;;;;15.52;5.32;;;;;;;20.12;88.57;95149.84;5033865;28;20036;-82
2023/09/29 08:57:25;;;;;;;11.45;4.95;;;;;;;20.18;89.26;95140.59;5017480;28;20032;-81
2023/09/29 08:59:52;;;;;;;16.42;5.25;;;;;;;20.29;94.86;95146.41;5033811;28;20064;-81
2023/09/29 09:02:18;;;;;;;14.10;4.93;;;;;;;20.48;92.11;95150.69;5033868;28;20469;-81
2023/09/29 09:04:43;;;;;;;14.30;5.82;;;;;;;20.44;85.14;95145.19;5033665;28;20037;-82
2023/09/29 09:07:09;;;;;;;11.55;5.22;;;;;;;20.29;86.86;95148.31;5033620;28;20040;-81
2023/09/29 09:09:36;;;;;;;12.30;5.00;;;;;;;20.54;93.31;95149.44;5034908;28;20043;-81
2023/09/29 09:12:02;;;;;;;13.55;5.82;;;;;;;20.62;86.29;95153.19;5033766;28;20454;-83
2023/09/29 09:14:40;;;;;;;10.00;5.70;;;;;;;20.75;85.21;95154.16;5033824;28;20033;-82
2023/09/29 09:17:06;;;;;;;12.25;5.53;;;;;;;20.81;87.07;95147.59;5033757;28;20025;-81
2023/09/29 09:19:31;;;;;;;16.70;6.05;;;;;;;20.69;85.49;95150.88;5033420;28;20025;-81
2023/09/29 09:21:56;;;;;;;13.95;5.93;;;;;;;20.85;81.54;95153.84;5033642;28;20385;-82
2023/09/29 09:24:23;;;;;;;20.27;6.30;;;;;;;20.71;80.59;95154.00;5034957;28;20033;-83
2023/09/29 09:26:50;;;;;;;10.45;5.53;;;;;;;20.90;86.12;95153.72;5033562;28;20429;-82
2023/09/29 09:29:16;;;;;;;11.93;4.90;;;;;;;20.89;83.09;95154.81;5017089;28;20075;-81
2023/09/29 09:31:55;;;;;;;15.00;5.28;;;;;;;21.11;85.56;95147.72;5035106;28;20044;-82
2023/09/29 09:34:31;;;;;;;14.82;5.03;;;;;;;21.19;81.28;95146.16;5018148;28;20040;-81
2023/09/29 09:36:56;;;;;;;16.75;5.55;;;;;;;21.17;78.33;95149.16;5034212;28;20032;-82
2023/09/29 09:39:25;;;;;;;11.60;4.97;;;;;;;21.41;82.78;95152.41;5032587;28;20037;-82
2023/09/29 09:41:53;;;;;;;12.18;5.78;;;;;;;21.36;74.98;95156.00;5017638;28;20358;-82
2023/09/29 09:44:20;;;;;;;10.57;5.10;;;;;;;21.40;76.46;95145.50;5033229;28;20049;-82
2023/09/29 09:47:10;;;;;;;14.93;5.10;;;;;;;21.18;77.07;95149.91;5033027;28;20405;-81
2023/09/29 09:49:44;;;;;;;11.20;4.50;;;;;;;21.42;75.97;95148.63;5033987;28;20052;-82
2023/09/29 09:52:15;;;;;;;9.60;4.95;;;;;;;21.61;79.75;95137.59;5033053;28;20056;-81
2023/09/29 09:54:48;;;;;;;10.70;5.18;;;;;;;21.81;81.48;95144.16;5022907;28;20063;-81
2023/09/29 09:57:20;;;;;;;9.52;4.97;;;;;;;21.87;82.84;95136.72;5036747;28;20036;-82
2023/09/29 09:59:45;;;;;;;17.65;4.85;;;;;;;21.93;71.67;95140.78;5052140;28;20028;-82
2023/09/29 10:02:11;;;;;;;17.73;4.72;;;;;;;21.83;74.03;95135.81;5058465;28;20029;-82
2023/09/29 10:04:40;;;;;;;14.30;4.22;;;;;;;22.12;72.19;95139.59;5056795;28;20370;-82
2023/09/29 10:07:06;;;;;;;14.55;4.70;;;;;;;21.91;65.65;95142.22;5056685;28;20361;-82
2023/09/29 10:09:43;;;;;;;13.00;4.45;;;;;;;22.11;63.72;95143.38;5056851;28;20035;-82
2023/09/29 10:12:09;;;;;;;16.98;3.95;;;;;;;22.14;65.35;95140.84;5040745;28;20024;-82
2023/09/29 10:14:44;;;;;;;17.08;4.95;;;;;;;21.98;65.37;95145.94;5040482;28;20065;-82
2023/09/29 10:17:12;;;;;;;18.15;4.65;;;;;;;21.97;65.87;95143.59;5056399;28;20063;-83
2023/09/29 10:19:38;;;;;;;9.18;4.78;;;;;;;21.89;63.93;95137.22;5057017;28;20024;-82
2023/09/29 10:22:04;;;;;;;9.63;4.13;;;;;;;22.06;63.05;95135.56;5056891;28;20442;-83
2023/09/29 10:24:30;;;;;;;16.27;4.18;;;;;;;22.11;61.23;95136.16;5056604;28;20055;-82
2023/09/29 10:27:03;;;;;;;8.90;4.30;;;;;;;22.33;61.06;95128.19;5057612;28;20025;-82
2023/09/29 10:29:30;;;;;;;21.80;4.65;;;;;;;22.50;63.79;95133.44;5040406;28;20029;-82
2023/09/29 10:32:14;;;;;;;8.70;3.67;;;;;;;22.35;59.29;95137.41;5039477;28;20025;-81
2023/09/29 10:34:41;;;;;;;7.38;3.83;;;;;;;22.49;60.01;95129.19;5056221;28;20033;-82
2023/09/29 10:37:09;;;;;;;10.27;4.03;;;;;;;22.52;56.85;95133.88;5039331;28;20060;-83
2023/09/29 10:39:35;;;;;;;11.00;3.65;;;;;;;22.45;57.68;95139.72;5055736;28;20029;-82
2023/09/29 10:42:13;;;;;;;9.07;3.70;;;;;;;22.56;58.69;95137.47;5055910;28;20423;-83
2023/09/29 10:44:52;;;;;;;9.57;3.83;;;;;;;22.46;58.02;95127.94;5073076;28;20039;-81
2023/09/29 10:47:34;;;;;;;9.35;3.88;;;;;;;22.56;59.07;95128.69;5056295;28;20037;-82
2023/09/29 10:50:03;;;;;;;13.52;3.95;;;;;;;22.67;62.03;95137.09;5055963;28;20040;-82
2023/09/29 10:52:29;;;;;;;8.63;3.90;;;;;;;22.92;58.47;95132.63;5057505;28;20040;-82
2023/09/29 10:54:59;;;;;;;6.43;3.35;;;;;;;22.74;54.72;95124.75;5056005;28;20040;-82
2023/09/29 10:57:30;;;;;;;6.60;3.88;;;;;;;22.50;55.58;95128.09;5040162;28;20087;-82
2023/09/29 10:59:59;;;;;;;8.45;4.07;;;;;;;22.62;57.58;95126.59;5056037;28;20029;-82
2023/09/29 11:02:35;;;;;;;9.13;3.95;;;;;;;22.84;58.88;95117.47;5056069;28;20029;-82
2023/09/29 11:05:05;;;;;;;11.10;3.58;;;;;;;22.77;58.60;95118.00;5055971;28;20040;-82
2023/09/29 11:07:45;;;;;;;9.68;3.72;;;;;;;22.78;60.59;95116.09;5056108;28;20078;-82
2023/09/29 11:10:12;;;;;;;8.57;4.28;;;;;;;23.07;59.28;95119.78;5055502;28;20037;-82
2023/09/29 11:12:40;;;;;;;10.65;3.85;;;;;;;23.11;59.53;95118.78;5055854;28;20082;-81
2023/09/29 11:15:08;;;;;;;13.25;4.00;;;;;;;23.27;59.59;95110.97;5055723;28;20119;-81